createdAt,value
2018-12-24T00:00:42.439Z,66.40
2018-12-24T00:03:14.843Z,66.50
2018-12-24T00:05:47.231Z,66.50
2018-12-24T00:08:19.972Z,66.40
2018-12-24T00:10:52.392Z,66.50
2018-12-24T00:13:24.922Z,66.50
2018-12-24T00:15:57.584Z,66.60
2018-12-24T00:18:29.952Z,66.60
2018-12-24T00:21:04.499Z,66.40
2018-12-24T00:23:36.849Z,66.40
2018-12-24T00:26:09.363Z,66.40
2018-12-24T00:28:41.764Z,66.30
2018-12-24T00:31:15.474Z,66.30
2018-12-24T00:33:47.878Z,66.40
2018-12-24T00:36:20.319Z,66.50
2018-12-24T00:38:52.738Z,66.40
2018-12-24T00:41:26.347Z,66.60
2018-12-24T00:43:58.703Z,66.40
2018-12-24T00:46:31.209Z,66.30
2018-12-24T00:49:03.670Z,66.40
2018-12-24T00:51:36.044Z,66.50
2018-12-24T00:54:08.476Z,66.60
2018-12-24T00:56:41.012Z,66.60
2018-12-24T00:59:13.460Z,66.70
2018-12-24T01:01:45.996Z,66.50
2018-12-24T01:04:18.503Z,66.70
2018-12-24T01:06:51.022Z,66.70
2018-12-24T01:09:23.518Z,66.70
2018-12-24T01:11:55.918Z,66.60
2018-12-24T01:14:28.305Z,66.60
2018-12-24T01:17:00.769Z,66.70
2018-12-24T01:19:33.127Z,66.70
2018-12-24T01:22:05.461Z,66.70
2018-12-24T01:24:37.869Z,66.00
2018-12-24T01:27:10.627Z,66.60
2018-12-24T01:29:43.035Z,66.50
2018-12-24T01:32:15.741Z,66.50
2018-12-24T01:34:48.230Z,66.60
2018-12-24T01:37:20.586Z,66.60
2018-12-24T01:39:53.015Z,66.60
2018-12-24T01:42:33.205Z,66.70
2018-12-24T01:44:59.436Z,66.60
2018-12-24T01:47:31.826Z,66.70
2018-12-24T01:50:04.414Z,66.70
2018-12-24T01:52:36.802Z,66.70
2018-12-24T01:55:09.312Z,66.70
2018-12-24T01:57:41.790Z,66.80
2018-12-24T02:00:14.316Z,66.80
2018-12-24T02:02:46.758Z,66.80
2018-12-24T02:05:19.297Z,66.80
2018-12-24T02:07:51.701Z,66.90
2018-12-24T02:10:24.211Z,66.80
2018-12-24T02:12:56.716Z,66.70
2018-12-24T02:15:29.081Z,66.80
2018-12-24T02:18:01.386Z,66.80
2018-12-24T02:20:33.864Z,66.90
2018-12-24T02:23:06.350Z,66.80
2018-12-24T02:25:38.918Z,66.90
2018-12-24T02:28:11.596Z,66.80
2018-12-24T02:30:45.334Z,66.90
2018-12-24T02:33:18.010Z,66.80
2018-12-24T02:35:50.332Z,67.00
2018-12-24T02:38:22.749Z,66.90
2018-12-24T02:40:55.162Z,66.80
2018-12-24T02:43:27.520Z,66.80
2018-12-24T02:46:00.126Z,66.70
2018-12-24T02:48:32.631Z,66.80
2018-12-24T02:51:06.291Z,66.80
2018-12-24T02:53:38.619Z,66.80
2018-12-24T02:56:11.105Z,66.80
2018-12-24T02:58:43.441Z,66.80
2018-12-24T03:01:15.793Z,66.90
2018-12-24T03:03:48.256Z,66.80
2018-12-24T03:06:20.615Z,66.00
2018-12-24T03:08:53.058Z,66.80
2018-12-24T03:11:25.423Z,66.80
2018-12-24T03:13:57.883Z,66.80
2018-12-24T03:16:30.266Z,66.60
2018-12-24T03:19:02.820Z,66.60
2018-12-24T03:21:35.111Z,66.60
2018-12-24T03:24:07.596Z,66.60
2018-12-24T03:26:40.000Z,65.60
2018-12-24T03:29:12.353Z,66.60
2018-12-24T03:31:44.689Z,66.60
2018-12-24T03:34:17.263Z,66.50
2018-12-24T03:36:49.583Z,66.50
2018-12-24T03:39:22.025Z,66.50
2018-12-24T03:41:54.535Z,66.40
2018-12-24T03:44:26.880Z,66.40
2018-12-24T03:46:59.458Z,66.30
2018-12-24T03:49:31.856Z,66.30
2018-12-24T03:52:04.225Z,66.30
2018-12-24T03:54:36.710Z,66.40
2018-12-24T03:57:09.096Z,66.50
2018-12-24T03:59:41.800Z,66.50
2018-12-24T04:02:14.110Z,66.60
2018-12-24T04:04:46.528Z,66.60
2018-12-24T04:07:18.897Z,66.70
2018-12-24T04:09:51.184Z,66.80
2018-12-24T04:12:23.560Z,66.60
2018-12-24T04:14:57.188Z,66.60
2018-12-24T04:17:29.542Z,66.50
2018-12-24T04:20:01.900Z,66.40
2018-12-24T04:22:34.788Z,66.30
2018-12-24T04:25:07.139Z,66.50
2018-12-24T04:27:41.960Z,67.10
2018-12-24T04:30:13.648Z,66.40
2018-12-24T04:32:46.011Z,66.50
2018-12-24T04:35:18.490Z,65.60
2018-12-24T04:37:50.847Z,66.40
2018-12-24T04:40:23.281Z,66.50
2018-12-24T04:42:55.773Z,66.40
2018-12-24T04:45:28.281Z,66.50
2018-12-24T04:48:00.628Z,66.40
2018-12-24T04:50:33.357Z,66.30
2018-12-24T04:53:05.707Z,66.30
2018-12-24T04:55:38.101Z,66.40
2018-12-24T04:58:10.455Z,66.40
2018-12-24T05:00:42.806Z,66.30
2018-12-24T05:03:15.174Z,65.10
2018-12-24T05:05:47.568Z,65.10
2018-12-24T05:08:19.907Z,66.10
2018-12-24T05:10:52.600Z,66.00
2018-12-24T05:13:25.044Z,66.00
2018-12-24T05:15:57.377Z,66.00
2018-12-24T05:18:29.939Z,66.00
2018-12-24T05:21:03.565Z,66.10
2018-12-24T05:23:35.974Z,66.10
2018-12-24T05:26:08.317Z,66.10
2018-12-24T05:28:40.645Z,66.00
2018-12-24T05:31:12.951Z,66.00
2018-12-24T05:33:45.480Z,66.00
2018-12-24T05:36:17.831Z,65.90
2018-12-24T05:38:50.227Z,65.90
2018-12-24T05:41:22.827Z,65.90
2018-12-24T05:43:55.267Z,65.90
2018-12-24T05:46:27.609Z,66.00
2018-12-24T05:49:00.023Z,66.00
2018-12-24T05:51:33.636Z,66.00
2018-12-24T05:54:05.933Z,65.90
2018-12-24T05:56:38.380Z,65.90
2018-12-24T05:59:10.777Z,65.70
2018-12-24T06:01:43.065Z,65.80
2018-12-24T06:04:15.462Z,65.90
2018-12-24T06:06:47.752Z,65.70
2018-12-24T06:09:20.313Z,65.90
2018-12-24T06:11:52.732Z,65.90
2018-12-24T06:14:25.389Z,65.70
2018-12-24T06:16:57.853Z,65.70
2018-12-24T06:19:30.336Z,65.60
2018-12-24T06:22:02.639Z,65.70
2018-12-24T06:24:35.087Z,65.60
2018-12-24T06:27:07.432Z,65.60
2018-12-24T06:29:39.824Z,65.70
2018-12-24T06:32:12.173Z,65.60
2018-12-24T06:34:44.739Z,65.70
2018-12-24T06:37:17.051Z,66.30
2018-12-24T06:39:49.524Z,65.50
2018-12-24T06:42:21.859Z,65.40
2018-12-24T06:44:54.327Z,65.60
2018-12-24T06:47:26.678Z,65.50
2018-12-24T06:49:59.073Z,65.40
2018-12-24T06:52:31.416Z,65.40
2018-12-24T06:55:03.776Z,65.40
2018-12-24T06:57:36.241Z,65.40
2018-12-24T07:00:08.690Z,65.40
2018-12-24T07:02:41.017Z,65.40
2018-12-24T07:05:13.349Z,64.90
2018-12-24T07:07:45.857Z,65.20
2018-12-24T07:10:18.297Z,65.30
2018-12-24T07:12:52.041Z,65.20
2018-12-24T07:15:24.365Z,65.30
2018-12-24T07:17:56.801Z,65.20
2018-12-24T07:20:29.162Z,65.10
2018-12-24T07:23:01.489Z,65.30
2018-12-24T07:25:33.918Z,65.20
2018-12-24T07:28:06.219Z,65.10
2018-12-24T07:30:38.834Z,65.10
2018-12-24T07:33:11.243Z,65.20
2018-12-24T07:35:43.851Z,65.20
2018-12-24T07:38:16.566Z,65.20
2018-12-24T07:40:48.990Z,65.10
2018-12-24T07:43:21.419Z,65.20
2018-12-24T07:45:53.922Z,65.10
2018-12-24T07:48:26.777Z,65.00
2018-12-24T07:50:59.151Z,64.90
2018-12-24T07:53:31.496Z,64.90
2018-12-24T07:56:03.806Z,65.20
2018-12-24T07:58:36.170Z,64.60
2018-12-24T08:01:08.783Z,64.80
2018-12-24T08:03:42.389Z,64.80
2018-12-24T08:06:14.842Z,64.60
2018-12-24T08:08:47.548Z,64.50
2018-12-24T08:11:21.206Z,64.50
2018-12-24T08:13:54.616Z,64.50
2018-12-24T08:16:27.046Z,64.60
2018-12-24T08:18:59.497Z,64.50
2018-12-24T08:21:31.977Z,64.40
2018-12-24T08:24:04.372Z,64.40
2018-12-24T08:26:36.770Z,63.30
2018-12-24T08:29:09.176Z,64.30
2018-12-24T08:31:41.542Z,64.10
2018-12-24T08:34:14.143Z,64.20
2018-12-24T08:36:46.567Z,64.30
2018-12-24T08:39:18.931Z,64.20
2018-12-24T08:41:51.327Z,64.20
2018-12-24T08:44:23.826Z,64.20
2018-12-24T08:46:56.518Z,65.00
2018-12-24T08:49:29.251Z,64.20
2018-12-24T08:52:01.660Z,64.00
2018-12-24T08:54:34.138Z,63.90
2018-12-24T08:57:06.612Z,62.70
2018-12-24T08:59:39.361Z,62.50
2018-12-24T09:02:11.730Z,62.80
2018-12-24T09:04:44.256Z,63.30
2018-12-24T09:07:17.080Z,63.30
2018-12-24T09:09:49.407Z,63.50
2018-12-24T09:12:21.840Z,63.90
2018-12-24T09:14:54.180Z,63.10
2018-12-24T09:17:26.568Z,63.40
2018-12-24T09:19:58.980Z,63.50
2018-12-24T09:22:31.494Z,63.70
2018-12-24T09:25:04.096Z,64.00
2018-12-24T09:27:36.588Z,64.00
2018-12-24T09:30:12.642Z,64.30
2018-12-24T09:32:45.265Z,64.40
2018-12-24T09:35:17.766Z,64.40
2018-12-24T09:37:50.164Z,64.30
2018-12-24T09:40:22.865Z,64.00
2018-12-24T09:42:56.658Z,63.80
2018-12-24T09:45:29.167Z,62.90
2018-12-24T09:48:01.508Z,62.70
2018-12-24T09:50:33.963Z,62.20
2018-12-24T09:53:06.447Z,61.80
2018-12-24T09:55:39.033Z,61.30
2018-12-24T09:58:11.902Z,61.10
2018-12-24T10:00:44.300Z,61.00
2018-12-24T10:03:28.598Z,60.70
2018-12-24T10:06:56.699Z,59.90
2018-12-24T10:09:29.306Z,57.40
2018-12-24T10:12:01.274Z,57.30
2018-12-24T10:14:33.157Z,57.30
2018-12-24T10:17:05.042Z,57.60
2018-12-24T10:19:36.995Z,56.80
2018-12-24T10:22:08.873Z,56.50
2018-12-24T10:24:40.796Z,56.60
2018-12-24T10:27:12.684Z,55.50
2018-12-24T10:29:44.521Z,55.50
2018-12-24T10:32:16.702Z,54.60
2018-12-24T10:34:48.719Z,54.50
2018-12-24T10:37:20.629Z,53.00
2018-12-24T10:39:52.469Z,52.90
2018-12-24T10:42:24.332Z,52.70
2018-12-24T10:44:56.635Z,52.30
2018-12-24T10:47:29.594Z,52.40
2018-12-24T10:50:02.291Z,52.10
2018-12-24T10:52:34.277Z,52.50
2018-12-24T10:55:06.493Z,51.40
2018-12-24T10:57:38.370Z,52.10
2018-12-24T11:00:12.232Z,51.70
2018-12-24T11:02:47.112Z,51.40
2018-12-24T11:05:28.075Z,51.00
2018-12-24T11:07:59.917Z,51.00
2018-12-24T11:10:32.298Z,50.10
2018-12-24T11:13:04.277Z,48.50
2018-12-24T11:15:36.164Z,48.40
2018-12-24T11:18:07.997Z,47.30
2018-12-24T11:20:40.237Z,47.20
2018-12-24T11:23:14.083Z,47.10
2018-12-24T11:25:45.889Z,47.10
2018-12-24T11:28:17.835Z,46.70
2018-12-24T11:30:49.666Z,46.20
2018-12-24T11:33:21.743Z,46.60
2018-12-24T11:35:53.720Z,46.20
2018-12-24T11:38:25.656Z,45.90
2018-12-24T11:40:57.507Z,45.70
2018-12-24T11:43:29.374Z,46.30
2018-12-24T11:46:01.373Z,46.90
2018-12-24T11:48:33.598Z,47.00
2018-12-24T11:51:05.653Z,47.30
2018-12-24T11:53:38.298Z,47.50
2018-12-24T11:56:10.284Z,47.60
2018-12-24T11:58:42.697Z,47.20
2018-12-24T12:01:15.232Z,46.40
2018-12-24T12:03:47.675Z,45.80
2018-12-24T12:06:20.179Z,45.70
2018-12-24T12:08:52.193Z,44.10
2018-12-24T12:11:24.013Z,42.70
2018-12-24T12:13:56.214Z,41.70
2018-12-24T12:16:28.343Z,37.70
2018-12-24T12:19:00.274Z,40.80
2018-12-24T12:21:32.128Z,42.20
2018-12-24T12:24:03.948Z,42.60
2018-12-24T12:26:35.899Z,42.80
2018-12-24T12:29:08.025Z,43.00
2018-12-24T12:31:39.980Z,42.80
2018-12-24T12:34:12.287Z,42.50
2018-12-24T12:36:44.387Z,37.70
2018-12-24T12:39:16.284Z,40.60
2018-12-24T12:41:48.123Z,40.20
2018-12-24T12:44:21.255Z,39.30
2018-12-24T12:46:53.118Z,39.50
2018-12-24T12:49:25.244Z,39.10
2018-12-24T12:51:57.180Z,39.60
2018-12-24T12:54:29.194Z,39.80
2018-12-24T12:57:04.043Z,39.80
2018-12-24T12:59:35.890Z,39.80
2018-12-24T13:02:07.834Z,40.10
2018-12-24T13:04:39.825Z,40.50
2018-12-24T13:07:11.686Z,40.90
2018-12-24T13:09:43.522Z,40.90
2018-12-24T13:12:15.712Z,40.90
2018-12-24T13:14:47.719Z,40.60
2018-12-24T13:17:19.642Z,40.50
2018-12-24T13:19:51.998Z,40.50
2018-12-24T13:22:23.934Z,40.30
2018-12-24T13:24:55.787Z,39.70
2018-12-24T13:27:27.715Z,39.50
2018-12-24T13:29:59.676Z,39.20
2018-12-24T13:32:31.634Z,39.00
2018-12-24T13:35:03.477Z,39.00
2018-12-24T13:37:35.357Z,39.10
2018-12-24T13:40:07.523Z,39.10
2018-12-24T13:42:40.742Z,39.40
2018-12-24T13:45:12.604Z,39.60
2018-12-24T13:47:44.487Z,40.00
2018-12-24T13:50:16.537Z,40.10
2018-12-24T13:52:48.531Z,40.60
2018-12-24T13:55:20.540Z,40.90
2018-12-24T13:57:52.415Z,41.20
2018-12-24T14:00:24.490Z,41.40
2018-12-24T14:02:56.362Z,41.30
2018-12-24T14:05:28.229Z,41.10
2018-12-24T14:08:00.337Z,40.30
2018-12-24T14:10:32.195Z,40.70
2018-12-24T14:13:04.407Z,40.50
2018-12-24T14:15:36.718Z,40.40
2018-12-24T14:18:08.678Z,40.20
2018-12-24T14:20:40.727Z,40.30
2018-12-24T14:23:14.313Z,40.40
2018-12-24T14:25:46.136Z,40.40
2018-12-24T14:28:18.142Z,40.50
2018-12-24T14:30:50.256Z,40.60
2018-12-24T14:33:35.381Z,40.80
2018-12-24T14:36:07.423Z,40.90
2018-12-24T14:38:41.117Z,41.00
2018-12-24T14:41:12.933Z,41.20
2018-12-24T14:43:44.831Z,41.20
2018-12-24T14:46:25.403Z,41.40
2018-12-24T14:48:57.367Z,41.50
2018-12-24T14:51:29.246Z,41.30
2018-12-24T14:54:04.623Z,41.50
2018-12-24T14:56:36.483Z,41.90
2018-12-24T14:59:08.470Z,41.90
2018-12-24T15:01:40.439Z,42.00
2018-12-24T15:04:12.487Z,42.10
2018-12-24T15:06:44.471Z,42.10
2018-12-24T15:09:16.394Z,42.30
2018-12-24T15:11:48.258Z,42.20
2018-12-24T15:14:20.222Z,42.20
2018-12-24T15:16:52.238Z,42.40
2018-12-24T15:19:24.139Z,42.50
2018-12-24T15:21:56.011Z,42.70
2018-12-24T15:24:27.979Z,42.90
2018-12-24T15:26:59.959Z,43.00
2018-12-24T15:29:32.014Z,43.00
2018-12-24T15:32:03.961Z,43.40
2018-12-24T15:34:35.985Z,44.30
2018-12-24T15:37:07.880Z,44.30
2018-12-24T15:39:39.771Z,44.40
2018-12-24T15:42:11.990Z,44.40
2018-12-24T15:44:43.864Z,44.60
2018-12-24T15:47:15.742Z,44.80
2018-12-24T15:49:49.265Z,44.90
2018-12-24T15:52:21.225Z,45.10
2018-12-24T15:54:53.058Z,45.30
2018-12-24T15:57:24.983Z,45.50
2018-12-24T15:59:56.950Z,45.70
2018-12-24T16:02:29.094Z,45.50
2018-12-24T16:05:01.057Z,45.80
2018-12-24T16:07:33.521Z,45.90
2018-12-24T16:10:05.530Z,45.80
2018-12-24T16:12:37.441Z,45.90
2018-12-24T16:15:09.451Z,46.00
2018-12-24T16:17:41.712Z,46.10
2018-12-24T16:20:13.580Z,46.20
2018-12-24T16:22:46.133Z,46.40
2018-12-24T16:25:18.171Z,46.50
2018-12-24T16:27:51.850Z,46.60
2018-12-24T16:30:23.857Z,46.70
2018-12-24T16:32:55.697Z,46.60
2018-12-24T16:35:27.598Z,46.50
2018-12-24T16:37:59.547Z,46.70
2018-12-24T16:40:31.486Z,46.90
2018-12-24T16:43:03.344Z,47.00
2018-12-24T16:45:35.473Z,47.00
2018-12-24T16:48:07.709Z,46.90
2018-12-24T16:50:39.871Z,47.10
2018-12-24T16:53:11.866Z,47.10
2018-12-24T16:55:43.719Z,47.10
2018-12-24T16:58:15.783Z,47.20
2018-12-24T17:00:47.999Z,47.40
2018-12-24T17:03:19.921Z,48.00
2018-12-24T17:05:51.785Z,47.40
2018-12-24T17:08:23.730Z,47.50
2018-12-24T17:10:55.652Z,47.60
2018-12-24T17:13:27.731Z,47.40
2018-12-24T17:16:00.917Z,47.50
2018-12-24T17:18:34.263Z,47.40
2018-12-24T17:21:06.627Z,47.50
2018-12-24T17:23:38.631Z,47.50
2018-12-24T17:26:10.781Z,47.80
2018-12-24T17:28:42.964Z,48.00
2018-12-24T17:31:15.183Z,48.00
2018-12-24T17:33:47.357Z,47.90
2018-12-24T17:36:19.287Z,47.90
2018-12-24T17:38:51.160Z,47.80
2018-12-24T17:41:24.978Z,48.00
2018-12-24T17:43:56.884Z,48.10
2018-12-24T17:46:28.904Z,48.30
2018-12-24T17:49:00.882Z,48.40
2018-12-24T17:51:32.812Z,48.20
2018-12-24T17:54:04.862Z,48.30
2018-12-24T17:56:36.897Z,48.70
2018-12-24T17:59:08.916Z,48.70
2018-12-24T18:01:41.061Z,49.00
2018-12-24T18:04:12.977Z,48.90
2018-12-24T18:06:44.845Z,48.80
2018-12-24T18:09:17.562Z,48.90
2018-12-24T18:11:49.586Z,49.00
2018-12-24T18:14:21.443Z,49.20
2018-12-24T18:16:53.326Z,48.80
2018-12-24T18:19:25.160Z,49.60
2018-12-24T18:21:57.101Z,49.10
2018-12-24T18:24:29.186Z,49.00
2018-12-24T18:27:01.050Z,49.00
2018-12-24T18:29:33.003Z,49.20
2018-12-24T18:32:05.020Z,49.10
2018-12-24T18:34:37.018Z,49.20
2018-12-24T18:37:08.951Z,49.60
2018-12-24T18:39:40.940Z,49.50
2018-12-24T18:42:12.917Z,49.50
2018-12-24T18:44:44.805Z,49.40
2018-12-24T18:47:16.631Z,49.60
2018-12-24T18:49:48.692Z,49.70
2018-12-24T18:52:20.798Z,49.50
2018-12-24T18:54:53.086Z,49.80
2018-12-24T18:57:25.160Z,49.90
2018-12-24T18:59:57.047Z,49.90
2018-12-24T19:02:29.118Z,49.90
2018-12-24T19:05:01.056Z,50.00
2018-12-24T19:07:33.153Z,50.20
2018-12-24T19:10:05.873Z,50.20
2018-12-24T19:12:37.844Z,50.30
2018-12-24T19:15:10.868Z,50.30
2018-12-24T19:17:43.128Z,50.50
2018-12-24T19:20:15.195Z,50.70
2018-12-24T19:22:47.043Z,51.00
2018-12-24T19:25:18.915Z,50.80
2018-12-24T19:27:50.955Z,50.80
2018-12-24T19:30:22.987Z,50.90
2018-12-24T19:33:15.190Z,50.90
2018-12-24T19:35:47.049Z,50.80
2018-12-24T19:38:19.122Z,50.80
2018-12-24T19:40:51.300Z,50.90
2018-12-24T19:43:23.541Z,50.90
2018-12-24T19:45:55.480Z,50.80
2018-12-24T19:48:27.555Z,50.80
2018-12-24T19:50:59.525Z,50.90
2018-12-24T19:53:32.678Z,51.00
2018-12-24T19:56:04.537Z,51.80
2018-12-24T19:58:36.516Z,51.10
2018-12-24T20:01:08.377Z,51.10
2018-12-24T20:03:40.247Z,51.20
2018-12-24T20:06:12.301Z,51.20
2018-12-24T20:08:44.470Z,51.30
2018-12-24T20:11:17.532Z,51.10
2018-12-24T20:13:49.536Z,51.70
2018-12-24T20:16:21.418Z,51.10
2018-12-24T20:18:53.561Z,51.10
2018-12-24T20:21:25.411Z,51.00
2018-12-24T20:23:57.342Z,51.20
2018-12-24T20:26:29.239Z,51.30
2018-12-24T20:29:01.118Z,51.50
2018-12-24T20:31:33.066Z,51.50
2018-12-24T20:34:04.930Z,51.50
2018-12-24T20:36:36.795Z,51.60
2018-12-24T20:39:10.495Z,51.50
2018-12-24T20:41:42.791Z,51.60
2018-12-24T20:44:14.970Z,51.60
2018-12-24T20:46:47.396Z,51.70
2018-12-24T20:49:19.870Z,51.60
2018-12-24T20:51:52.256Z,51.60
2018-12-24T20:54:24.303Z,51.70
2018-12-24T20:56:56.347Z,51.50
2018-12-24T20:59:28.159Z,51.70
2018-12-24T21:02:00.101Z,51.70
2018-12-24T21:04:31.975Z,51.60
2018-12-24T21:07:03.856Z,51.60
2018-12-24T21:09:35.743Z,51.50
2018-12-24T21:12:07.582Z,51.60
2018-12-24T21:14:39.669Z,51.70
2018-12-24T21:17:11.613Z,51.60
2018-12-24T21:19:43.517Z,51.60
2018-12-24T21:22:15.423Z,51.50
2018-12-24T21:24:47.234Z,51.40
2018-12-24T21:27:20.418Z,51.40
2018-12-24T21:29:52.535Z,51.50
2018-12-24T21:32:24.485Z,51.60
2018-12-24T21:34:56.487Z,51.40
2018-12-24T21:37:28.342Z,51.50
2018-12-24T21:40:00.338Z,51.50
2018-12-24T21:42:32.265Z,52.30
2018-12-24T21:45:04.496Z,51.50
2018-12-24T21:47:36.493Z,51.60
2018-12-24T21:50:08.442Z,51.70
2018-12-24T21:52:40.285Z,51.70
2018-12-24T21:55:12.240Z,51.60
2018-12-24T21:57:44.168Z,51.60
2018-12-24T22:00:16.223Z,51.70
2018-12-24T22:02:48.103Z,51.60
2018-12-24T22:05:31.781Z,51.70
2018-12-24T22:08:03.769Z,51.80
2018-12-24T22:10:35.647Z,51.80
2018-12-24T22:13:07.509Z,51.80
2018-12-24T22:15:39.458Z,51.70
2018-12-24T22:18:11.522Z,51.70
2018-12-24T22:20:43.365Z,51.70
2018-12-24T22:23:15.528Z,51.70
2018-12-24T22:25:47.538Z,51.80
2018-12-24T22:28:19.500Z,51.90
2018-12-24T22:30:51.640Z,51.90
2018-12-24T22:33:24.788Z,52.00
2018-12-24T22:35:58.343Z,52.00
2018-12-24T22:38:30.393Z,52.00
2018-12-24T22:41:02.470Z,52.30
2018-12-24T22:43:34.462Z,52.20
2018-12-24T22:46:06.566Z,52.20
2018-12-24T22:48:40.835Z,52.20
2018-12-24T22:51:12.531Z,52.90
2018-12-24T22:53:44.413Z,52.20
2018-12-24T22:56:16.246Z,52.20
2018-12-24T22:58:48.085Z,52.30
2018-12-24T23:01:20.020Z,52.30
2018-12-24T23:03:51.914Z,52.50
2018-12-24T23:06:24.184Z,52.40
2018-12-24T23:08:56.071Z,52.40
2018-12-24T23:11:28.361Z,52.30
2018-12-24T23:14:01.600Z,52.30
2018-12-24T23:16:33.405Z,52.30
2018-12-24T23:19:05.380Z,52.40
2018-12-24T23:21:37.541Z,52.40
2018-12-24T23:24:09.491Z,52.60
2018-12-24T23:26:41.339Z,52.70
2018-12-24T23:29:13.490Z,52.60
2018-12-24T23:31:45.355Z,53.20
2018-12-24T23:34:17.378Z,52.60
2018-12-24T23:36:49.548Z,52.60
2018-12-24T23:39:21.611Z,52.70
2018-12-24T23:41:53.516Z,52.60
2018-12-24T23:44:25.348Z,52.60
2018-12-24T23:46:57.173Z,52.50
2018-12-24T23:49:29.226Z,52.50
2018-12-24T23:52:01.022Z,52.50
2018-12-24T23:54:32.893Z,52.50
2018-12-24T23:57:04.868Z,52.50
2018-12-24T23:59:37.026Z,52.30
